sensor_id;sensor_type;location;lat;lon;timestamp;P1;durP1;ratioP1;P2;durP2;ratioP2
1811;SDS011;904;47.814;11.134;2024-03-02T00:01:05;8.02;;;5.68;;
1811;SDS011;904;47.814;11.134;2024-03-02T00:03:32;11.55;;;7.60;;
1811;SDS011;904;47.814;11.134;2024-03-02T00:05:59;21.75;;;13.27;;
1811;SDS011;904;47.814;11.134;2024-03-02T00:08:36;10.75;;;8.40;;
1811;SDS011;904;47.814;11.134;2024-03-02T00:11:04;16.65;;;13.07;;
1811;SDS011;904;47.814;11.134;2024-03-02T00:13:31;11.55;;;9.50;;
1811;SDS011;904;47.814;11.134;2024-03-02T00:16:04;7.30;;;5.82;;
1811;SDS011;904;47.814;11.134;2024-03-02T00:18:32;7.55;;;6.75;;
1811;SDS011;904;47.814;11.134;2024-03-02T00:21:01;10.02;;;6.18;;
1811;SDS011;904;47.814;11.134;2024-03-02T00:23:39;6.60;;;5.57;;
1811;SDS011;904;47.814;11.134;2024-03-02T00:26:11;7.97;;;6.80;;
1811;SDS011;904;47.814;11.134;2024-03-02T00:28:39;9.32;;;6.95;;
1811;SDS011;904;47.814;11.134;2024-03-02T00:31:15;9.40;;;7.85;;
1811;SDS011;904;47.814;11.134;2024-03-02T00:33:43;9.90;;;6.00;;
1811;SDS011;904;47.814;11.134;2024-03-02T00:36:16;7.25;;;6.40;;
1811;SDS011;904;47.814;11.134;2024-03-02T00:38:48;7.22;;;6.22;;
1811;SDS011;904;47.814;11.134;2024-03-02T00:41:20;6.90;;;5.65;;
1811;SDS011;904;47.814;11.134;2024-03-02T00:43:57;7.85;;;6.78;;
1811;SDS011;904;47.814;11.134;2024-03-02T00:46:31;13.70;;;8.95;;
1811;SDS011;904;47.814;11.134;2024-03-02T00:49:01;10.35;;;8.43;;
1811;SDS011;904;47.814;11.134;2024-03-02T00:51:39;11.07;;;8.80;;
1811;SDS011;904;47.814;11.134;2024-03-02T00:54:13;8.55;;;7.20;;
1811;SDS011;904;47.814;11.134;2024-03-02T00:56:40;10.80;;;8.77;;
1811;SDS011;904;47.814;11.134;2024-03-02T00:59:09;7.57;;;6.80;;
1811;SDS011;904;47.814;11.134;2024-03-02T01:01:38;8.10;;;6.75;;
1811;SDS011;904;47.814;11.134;2024-03-02T01:04:05;8.02;;;7.00;;
1811;SDS011;904;47.814;11.134;2024-03-02T01:06:32;9.30;;;8.18;;
1811;SDS011;904;47.814;11.134;2024-03-02T01:09:00;7.80;;;6.10;;
1811;SDS011;904;47.814;11.134;2024-03-02T01:11:28;7.95;;;5.97;;
1811;SDS011;904;47.814;11.134;2024-03-02T01:13:56;6.43;;;5.15;;
1811;SDS011;904;47.814;11.134;2024-03-02T01:16:23;6.03;;;4.75;;
1811;SDS011;904;47.814;11.134;2024-03-02T01:18:56;6.47;;;4.68;;
1811;SDS011;904;47.814;11.134;2024-03-02T01:21:23;7.32;;;5.70;;
1811;SDS011;904;47.814;11.134;2024-03-02T01:23:52;8.20;;;5.88;;
1811;SDS011;904;47.814;11.134;2024-03-02T01:26:20;5.93;;;5.20;;
1811;SDS011;904;47.814;11.134;2024-03-02T01:28:49;6.30;;;5.13;;
1811;SDS011;904;47.814;11.134;2024-03-02T01:31:20;7.13;;;4.80;;
1811;SDS011;904;47.814;11.134;2024-03-02T01:33:47;7.88;;;6.18;;
1811;SDS011;904;47.814;11.134;2024-03-02T01:36:16;7.75;;;6.60;;
1811;SDS011;904;47.814;11.134;2024-03-02T01:38:48;8.15;;;5.50;;
1811;SDS011;904;47.814;11.134;2024-03-02T01:41:15;7.43;;;6.18;;
1811;SDS011;904;47.814;11.134;2024-03-02T01:43:42;7.07;;;5.30;;
1811;SDS011;904;47.814;11.134;2024-03-02T01:46:09;7.40;;;5.30;;
1811;SDS011;904;47.814;11.134;2024-03-02T01:48:40;8.98;;;6.22;;
1811;SDS011;904;47.814;11.134;2024-03-02T01:51:07;9.75;;;5.90;;
1811;SDS011;904;47.814;11.134;2024-03-02T01:53:37;9.35;;;6.15;;
1811;SDS011;904;47.814;11.134;2024-03-02T01:56:04;7.70;;;6.40;;
1811;SDS011;904;47.814;11.134;2024-03-02T01:58:41;5.90;;;5.25;;
1811;SDS011;904;47.814;11.134;2024-03-02T02:01:09;5.78;;;5.18;;
1811;SDS011;904;47.814;11.134;2024-03-02T02:03:36;7.65;;;6.43;;
1811;SDS011;904;47.814;11.134;2024-03-02T02:06:16;8.10;;;6.18;;
1811;SDS011;904;47.814;11.134;2024-03-02T02:08:44;8.63;;;5.95;;
1811;SDS011;904;47.814;11.134;2024-03-02T02:11:14;8.05;;;6.22;;
1811;SDS011;904;47.814;11.134;2024-03-02T02:13:41;7.22;;;5.72;;
1811;SDS011;904;47.814;11.134;2024-03-02T02:16:08;6.10;;;5.50;;
1811;SDS011;904;47.814;11.134;2024-03-02T02:18:35;6.05;;;5.05;;
1811;SDS011;904;47.814;11.134;2024-03-02T02:21:04;7.93;;;6.10;;
1811;SDS011;904;47.814;11.134;2024-03-02T02:23:33;6.53;;;5.15;;
1811;SDS011;904;47.814;11.134;2024-03-02T02:26:00;6.22;;;5.63;;
1811;SDS011;904;47.814;11.134;2024-03-02T02:28:28;6.55;;;5.40;;
1811;SDS011;904;47.814;11.134;2024-03-02T02:30:55;6.85;;;5.25;;
1811;SDS011;904;47.814;11.134;2024-03-02T02:33:23;5.80;;;4.68;;
1811;SDS011;904;47.814;11.134;2024-03-02T02:35:50;5.60;;;4.55;;
1811;SDS011;904;47.814;11.134;2024-03-02T02:38:17;7.25;;;4.70;;
1811;SDS011;904;47.814;11.134;2024-03-02T02:40:46;5.38;;;4.53;;
1811;SDS011;904;47.814;11.134;2024-03-02T02:43:13;6.20;;;4.97;;
1811;SDS011;904;47.814;11.134;2024-03-02T02:45:40;5.53;;;4.90;;
1811;SDS011;904;47.814;11.134;2024-03-02T02:48:18;7.55;;;5.45;;
1811;SDS011;904;47.814;11.134;2024-03-02T02:50:45;6.68;;;5.80;;
1811;SDS011;904;47.814;11.134;2024-03-02T02:53:21;8.10;;;5.07;;
1811;SDS011;904;47.814;11.134;2024-03-02T02:55:50;7.13;;;5.07;;
1811;SDS011;904;47.814;11.134;2024-03-02T02:58:17;5.22;;;4.72;;
1811;SDS011;904;47.814;11.134;2024-03-02T03:00:49;7.78;;;5.80;;
1811;SDS011;904;47.814;11.134;2024-03-02T03:03:16;6.95;;;5.25;;
1811;SDS011;904;47.814;11.134;2024-03-02T03:05:43;6.60;;;5.70;;
1811;SDS011;904;47.814;11.134;2024-03-02T03:08:12;7.78;;;6.93;;
1811;SDS011;904;47.814;11.134;2024-03-02T03:10:39;6.55;;;5.55;;
1811;SDS011;904;47.814;11.134;2024-03-02T03:13:07;7.03;;;5.32;;
1811;SDS011;904;47.814;11.134;2024-03-02T03:15:34;9.18;;;6.15;;
1811;SDS011;904;47.814;11.134;2024-03-02T03:18:02;8.10;;;5.25;;
1811;SDS011;904;47.814;11.134;2024-03-02T03:20:30;7.90;;;6.05;;
1811;SDS011;904;47.814;11.134;2024-03-02T03:22:57;8.27;;;6.00;;
1811;SDS011;904;47.814;11.134;2024-03-02T03:25:24;8.38;;;6.18;;
1811;SDS011;904;47.814;11.134;2024-03-02T03:27:56;7.85;;;5.40;;
1811;SDS011;904;47.814;11.134;2024-03-02T03:30:25;8.63;;;6.65;;
1811;SDS011;904;47.814;11.134;2024-03-02T03:32:52;6.90;;;6.20;;
1811;SDS011;904;47.814;11.134;2024-03-02T03:35:19;6.35;;;5.00;;
1811;SDS011;904;47.814;11.134;2024-03-02T03:37:48;5.18;;;4.65;;
1811;SDS011;904;47.814;11.134;2024-03-02T03:40:15;7.18;;;5.20;;
1811;SDS011;904;47.814;11.134;2024-03-02T03:42:43;7.47;;;5.55;;
1811;SDS011;904;47.814;11.134;2024-03-02T03:45:10;5.72;;;4.82;;
1811;SDS011;904;47.814;11.134;2024-03-02T03:47:44;7.53;;;6.75;;
1811;SDS011;904;47.814;11.134;2024-03-02T03:50:12;6.75;;;5.45;;
1811;SDS011;904;47.814;11.134;2024-03-02T03:52:40;6.68;;;5.32;;
1811;SDS011;904;47.814;11.134;2024-03-02T03:55:07;7.35;;;6.45;;
1811;SDS011;904;47.814;11.134;2024-03-02T03:57:35;7.40;;;5.40;;
1811;SDS011;904;47.814;11.134;2024-03-02T04:00:03;7.22;;;5.75;;
1811;SDS011;904;47.814;11.134;2024-03-02T04:02:32;7.75;;;6.95;;
1811;SDS011;904;47.814;11.134;2024-03-02T04:05:00;6.55;;;5.30;;
1811;SDS011;904;47.814;11.134;2024-03-02T04:07:30;9.18;;;6.03;;
1811;SDS011;904;47.814;11.134;2024-03-02T04:09:58;7.22;;;6.50;;
1811;SDS011;904;47.814;11.134;2024-03-02T04:12:25;7.57;;;5.32;;
1811;SDS011;904;47.814;11.134;2024-03-02T04:14:52;7.55;;;5.90;;
1811;SDS011;904;47.814;11.134;2024-03-02T04:17:19;7.18;;;5.45;;
1811;SDS011;904;47.814;11.134;2024-03-02T04:19:46;7.22;;;5.25;;
1811;SDS011;904;47.814;11.134;2024-03-02T04:22:16;5.80;;;5.15;;
1811;SDS011;904;47.814;11.134;2024-03-02T04:24:43;5.05;;;4.30;;
1811;SDS011;904;47.814;11.134;2024-03-02T04:27:11;8.52;;;5.15;;
1811;SDS011;904;47.814;11.134;2024-03-02T04:29:38;6.82;;;5.30;;
1811;SDS011;904;47.814;11.134;2024-03-02T04:32:05;7.10;;;5.88;;
1811;SDS011;904;47.814;11.134;2024-03-02T04:34:33;7.05;;;6.25;;
1811;SDS011;904;47.814;11.134;2024-03-02T04:37:00;5.95;;;5.10;;
1811;SDS011;904;47.814;11.134;2024-03-02T04:39:29;8.50;;;7.07;;
1811;SDS011;904;47.814;11.134;2024-03-02T04:41:56;9.10;;;6.82;;
1811;SDS011;904;47.814;11.134;2024-03-02T04:44:24;7.82;;;6.90;;
1811;SDS011;904;47.814;11.134;2024-03-02T04:46:51;8.85;;;6.95;;
1811;SDS011;904;47.814;11.134;2024-03-02T04:49:23;8.40;;;6.60;;
1811;SDS011;904;47.814;11.134;2024-03-02T04:51:50;6.55;;;5.88;;
1811;SDS011;904;47.814;11.134;2024-03-02T04:54:22;7.22;;;5.47;;
1811;SDS011;904;47.814;11.134;2024-03-02T04:56:50;7.85;;;5.90;;
1811;SDS011;904;47.814;11.134;2024-03-02T04:59:17;8.65;;;5.80;;
1811;SDS011;904;47.814;11.134;2024-03-02T05:01:44;8.07;;;6.80;;
1811;SDS011;904;47.814;11.134;2024-03-02T05:04:12;7.18;;;6.25;;
1811;SDS011;904;47.814;11.134;2024-03-02T05:06:44;6.63;;;5.88;;
1811;SDS011;904;47.814;11.134;2024-03-02T05:09:17;13.85;;;6.18;;
1811;SDS011;904;47.814;11.134;2024-03-02T05:11:55;7.57;;;5.90;;
1811;SDS011;904;47.814;11.134;2024-03-02T05:14:38;8.55;;;6.53;;
1811;SDS011;904;47.814;11.134;2024-03-02T05:17:07;15.25;;;6.32;;
1811;SDS011;904;47.814;11.134;2024-03-02T05:19:34;6.75;;;5.55;;
1811;SDS011;904;47.814;11.134;2024-03-02T05:22:01;7.65;;;6.32;;
1811;SDS011;904;47.814;11.134;2024-03-02T05:24:31;7.45;;;5.88;;
1811;SDS011;904;47.814;11.134;2024-03-02T05:27:03;6.07;;;5.15;;
1811;SDS011;904;47.814;11.134;2024-03-02T05:29:34;7.15;;;5.78;;
1811;SDS011;904;47.814;11.134;2024-03-02T05:32:02;8.02;;;6.03;;
1811;SDS011;904;47.814;11.134;2024-03-02T05:34:30;7.15;;;5.28;;
1811;SDS011;904;47.814;11.134;2024-03-02T05:36:59;6.32;;;5.57;;
1811;SDS011;904;47.814;11.134;2024-03-02T05:39:28;8.18;;;5.80;;
1811;SDS011;904;47.814;11.134;2024-03-02T05:41:59;8.95;;;5.63;;
1811;SDS011;904;47.814;11.134;2024-03-02T05:44:28;8.10;;;5.47;;
1811;SDS011;904;47.814;11.134;2024-03-02T05:46:55;6.50;;;5.47;;
1811;SDS011;904;47.814;11.134;2024-03-02T05:49:24;6.30;;;5.70;;
1811;SDS011;904;47.814;11.134;2024-03-02T05:51:51;7.00;;;6.05;;
1811;SDS011;904;47.814;11.134;2024-03-02T05:54:22;7.78;;;6.97;;
1811;SDS011;904;47.814;11.134;2024-03-02T05:56:51;8.27;;;6.38;;
1811;SDS011;904;47.814;11.134;2024-03-02T05:59:19;8.13;;;6.95;;
1811;SDS011;904;47.814;11.134;2024-03-02T06:01:48;8.25;;;6.90;;
1811;SDS011;904;47.814;11.134;2024-03-02T06:04:15;7.75;;;6.90;;
1811;SDS011;904;47.814;11.134;2024-03-02T06:06:43;7.30;;;6.60;;
1811;SDS011;904;47.814;11.134;2024-03-02T06:09:15;11.98;;;9.63;;
1811;SDS011;904;47.814;11.134;2024-03-02T06:11:42;13.52;;;9.10;;
1811;SDS011;904;47.814;11.134;2024-03-02T06:14:15;16.13;;;6.75;;
1811;SDS011;904;47.814;11.134;2024-03-02T06:16:42;8.73;;;7.30;;
1811;SDS011;904;47.814;11.134;2024-03-02T06:19:21;8.77;;;7.10;;
1811;SDS011;904;47.814;11.134;2024-03-02T06:21:48;7.60;;;5.32;;
1811;SDS011;904;47.814;11.134;2024-03-02T06:24:15;7.30;;;6.15;;
1811;SDS011;904;47.814;11.134;2024-03-02T06:26:43;7.80;;;5.53;;
1811;SDS011;904;47.814;11.134;2024-03-02T06:29:10;6.88;;;5.68;;
1811;SDS011;904;47.814;11.134;2024-03-02T06:31:37;6.10;;;5.22;;
1811;SDS011;904;47.814;11.134;2024-03-02T06:34:04;8.65;;;6.45;;
1811;SDS011;904;47.814;11.134;2024-03-02T06:36:33;8.80;;;6.05;;
1811;SDS011;904;47.814;11.134;2024-03-02T06:39:00;10.85;;;6.85;;
1811;SDS011;904;47.814;11.134;2024-03-02T06:41:32;9.00;;;7.43;;
1811;SDS011;904;47.814;11.134;2024-03-02T06:44:00;7.50;;;6.40;;
1811;SDS011;904;47.814;11.134;2024-03-02T06:46:27;7.20;;;5.90;;
1811;SDS011;904;47.814;11.134;2024-03-02T06:48:56;9.20;;;8.27;;
1811;SDS011;904;47.814;11.134;2024-03-02T06:51:23;8.30;;;6.43;;
1811;SDS011;904;47.814;11.134;2024-03-02T06:53:52;7.65;;;6.18;;
1811;SDS011;904;47.814;11.134;2024-03-02T06:56:19;10.55;;;8.80;;
1811;SDS011;904;47.814;11.134;2024-03-02T06:58:49;10.80;;;9.00;;
1811;SDS011;904;47.814;11.134;2024-03-02T07:01:18;10.50;;;8.18;;
1811;SDS011;904;47.814;11.134;2024-03-02T07:03:46;12.13;;;10.32;;
1811;SDS011;904;47.814;11.134;2024-03-02T07:06:13;23.83;;;20.33;;
1811;SDS011;904;47.814;11.134;2024-03-02T07:08:45;20.70;;;14.55;;
1811;SDS011;904;47.814;11.134;2024-03-02T07:11:16;18.10;;;13.32;;
1811;SDS011;904;47.814;11.134;2024-03-02T07:13:43;16.42;;;11.20;;
1811;SDS011;904;47.814;11.134;2024-03-02T07:16:12;10.93;;;9.40;;
1811;SDS011;904;47.814;11.134;2024-03-02T07:18:53;9.68;;;8.05;;
1811;SDS011;904;47.814;11.134;2024-03-02T07:21:27;9.73;;;7.43;;
1811;SDS011;904;47.814;11.134;2024-03-02T07:23:54;7.85;;;6.97;;
1811;SDS011;904;47.814;11.134;2024-03-02T07:26:22;11.25;;;8.32;;
1811;SDS011;904;47.814;11.134;2024-03-02T07:28:50;9.40;;;8.13;;
1811;SDS011;904;47.814;11.134;2024-03-02T07:31:17;8.77;;;7.05;;
1811;SDS011;904;47.814;11.134;2024-03-02T07:33:45;9.10;;;7.22;;
1811;SDS011;904;47.814;11.134;2024-03-02T07:36:17;8.85;;;7.35;;
1811;SDS011;904;47.814;11.134;2024-03-02T07:38:44;8.15;;;6.97;;
1811;SDS011;904;47.814;11.134;2024-03-02T07:41:15;10.63;;;6.03;;
1811;SDS011;904;47.814;11.134;2024-03-02T07:43:54;14.03;;;9.63;;
1811;SDS011;904;47.814;11.134;2024-03-02T07:46:21;8.77;;;7.53;;
1811;SDS011;904;47.814;11.134;2024-03-02T07:48:49;8.53;;;7.13;;
1811;SDS011;904;47.814;11.134;2024-03-02T07:51:20;8.67;;;7.50;;
1811;SDS011;904;47.814;11.134;2024-03-02T07:53:47;7.50;;;6.40;;
1811;SDS011;904;47.814;11.134;2024-03-02T07:56:14;6.80;;;6.10;;
1811;SDS011;904;47.814;11.134;2024-03-02T07:58:47;8.90;;;7.47;;
1811;SDS011;904;47.814;11.134;2024-03-02T08:01:16;6.60;;;5.90;;
1811;SDS011;904;47.814;11.134;2024-03-02T08:03:46;7.23;;;5.80;;
1811;SDS011;904;47.814;11.134;2024-03-02T08:06:15;7.27;;;6.30;;
1811;SDS011;904;47.814;11.134;2024-03-02T08:08:42;6.57;;;5.80;;
1811;SDS011;904;47.814;11.134;2024-03-02T08:11:09;7.27;;;6.00;;
1811;SDS011;904;47.814;11.134;2024-03-02T08:13:36;9.43;;;6.00;;
1811;SDS011;904;47.814;11.134;2024-03-02T08:16:04;6.07;;;5.47;;
1811;SDS011;904;47.814;11.134;2024-03-02T08:18:35;6.43;;;5.30;;
1811;SDS011;904;47.814;11.134;2024-03-02T08:21:03;6.47;;;5.87;;
1811;SDS011;904;47.814;11.134;2024-03-02T08:23:34;6.40;;;5.67;;
1811;SDS011;904;47.814;11.134;2024-03-02T08:26:01;5.80;;;4.60;;
1811;SDS011;904;47.814;11.134;2024-03-02T08:28:29;7.77;;;6.17;;
1811;SDS011;904;47.814;11.134;2024-03-02T08:30:56;6.57;;;5.27;;
1811;SDS011;904;47.814;11.134;2024-03-02T08:33:23;6.20;;;4.90;;
1811;SDS011;904;47.814;11.134;2024-03-02T08:35:51;5.50;;;4.37;;
1811;SDS011;904;47.814;11.134;2024-03-02T08:38:18;5.53;;;4.30;;
1811;SDS011;904;47.814;11.134;2024-03-02T08:40:45;5.50;;;4.40;;
1811;SDS011;904;47.814;11.134;2024-03-02T08:43:13;6.00;;;4.77;;
1811;SDS011;904;47.814;11.134;2024-03-02T08:45:40;5.33;;;4.20;;
1811;SDS011;904;47.814;11.134;2024-03-02T08:48:08;5.60;;;5.00;;
1811;SDS011;904;47.814;11.134;2024-03-02T08:50:35;5.47;;;4.97;;
1811;SDS011;904;47.814;11.134;2024-03-02T08:53:04;6.13;;;4.87;;
1811;SDS011;904;47.814;11.134;2024-03-02T08:55:31;5.70;;;4.63;;
1811;SDS011;904;47.814;11.134;2024-03-02T08:57:58;6.30;;;5.07;;
1811;SDS011;904;47.814;11.134;2024-03-02T09:00:26;5.43;;;4.37;;
1811;SDS011;904;47.814;11.134;2024-03-02T09:02:53;6.40;;;4.50;;
1811;SDS011;904;47.814;11.134;2024-03-02T09:05:20;5.50;;;3.70;;
1811;SDS011;904;47.814;11.134;2024-03-02T09:07:47;6.73;;;4.10;;
1811;SDS011;904;47.814;11.134;2024-03-02T09:10:16;5.20;;;4.03;;
1811;SDS011;904;47.814;11.134;2024-03-02T09:12:43;5.03;;;3.80;;
1811;SDS011;904;47.814;11.134;2024-03-02T09:15:11;8.43;;;4.60;;
1811;SDS011;904;47.814;11.134;2024-03-02T09:17:38;7.17;;;5.00;;
1811;SDS011;904;47.814;11.134;2024-03-02T09:20:05;5.20;;;4.30;;
1811;SDS011;904;47.814;11.134;2024-03-02T09:22:33;5.70;;;4.60;;
1811;SDS011;904;47.814;11.134;2024-03-02T09:25:00;6.10;;;4.87;;
1811;SDS011;904;47.814;11.134;2024-03-02T09:27:29;6.13;;;4.47;;
1811;SDS011;904;47.814;11.134;2024-03-02T09:29:56;8.57;;;6.17;;
1811;SDS011;904;47.814;11.134;2024-03-02T09:32:23;6.00;;;5.23;;
1811;SDS011;904;47.814;11.134;2024-03-02T09:34:50;4.93;;;4.23;;
1811;SDS011;904;47.814;11.134;2024-03-02T09:37:21;7.10;;;5.17;;
1811;SDS011;904;47.814;11.134;2024-03-02T09:39:47;5.10;;;4.43;;
1811;SDS011;904;47.814;11.134;2024-03-02T09:42:15;6.00;;;5.03;;
1811;SDS011;904;47.814;11.134;2024-03-02T09:44:43;8.13;;;5.53;;
1811;SDS011;904;47.814;11.134;2024-03-02T09:47:10;6.50;;;4.73;;
1811;SDS011;904;47.814;11.134;2024-03-02T09:49:37;7.50;;;5.00;;
1811;SDS011;904;47.814;11.134;2024-03-02T09:52:04;4.87;;;4.20;;
1811;SDS011;904;47.814;11.134;2024-03-02T09:54:33;6.10;;;5.13;;
1811;SDS011;904;47.814;11.134;2024-03-02T09:57:00;7.50;;;5.40;;
1811;SDS011;904;47.814;11.134;2024-03-02T09:59:28;7.40;;;4.67;;
1811;SDS011;904;47.814;11.134;2024-03-02T10:01:57;6.43;;;4.73;;
1811;SDS011;904;47.814;11.134;2024-03-02T10:04:25;8.23;;;4.63;;
1811;SDS011;904;47.814;11.134;2024-03-02T10:07:01;4.83;;;4.30;;
1811;SDS011;904;47.814;11.134;2024-03-02T10:09:39;5.70;;;3.87;;
1811;SDS011;904;47.814;11.134;2024-03-02T10:12:10;4.80;;;3.93;;
1811;SDS011;904;47.814;11.134;2024-03-02T10:14:38;6.10;;;4.77;;
1811;SDS011;904;47.814;11.134;2024-03-02T10:17:06;5.20;;;4.03;;
1811;SDS011;904;47.814;11.134;2024-03-02T10:19:35;4.83;;;3.90;;
1811;SDS011;904;47.814;11.134;2024-03-02T10:22:03;3.90;;;3.00;;
1811;SDS011;904;47.814;11.134;2024-03-02T10:24:37;4.93;;;4.20;;
1811;SDS011;904;47.814;11.134;2024-03-02T10:27:08;4.80;;;2.40;;
1811;SDS011;904;47.814;11.134;2024-03-02T10:29:36;4.30;;;2.80;;
1811;SDS011;904;47.814;11.134;2024-03-02T10:32:05;3.47;;;1.90;;
1811;SDS011;904;47.814;11.134;2024-03-02T10:34:35;3.70;;;2.60;;
1811;SDS011;904;47.814;11.134;2024-03-02T10:37:02;3.90;;;2.30;;
1811;SDS011;904;47.814;11.134;2024-03-02T10:39:29;5.47;;;3.67;;
1811;SDS011;904;47.814;11.134;2024-03-02T10:41:57;5.03;;;2.73;;
1811;SDS011;904;47.814;11.134;2024-03-02T10:44:28;5.43;;;3.60;;
1811;SDS011;904;47.814;11.134;2024-03-02T10:46:56;4.27;;;3.03;;
1811;SDS011;904;47.814;11.134;2024-03-02T10:49:27;5.30;;;3.60;;
1811;SDS011;904;47.814;11.134;2024-03-02T10:51:56;4.53;;;3.40;;
1811;SDS011;904;47.814;11.134;2024-03-02T10:54:23;4.40;;;3.20;;
1811;SDS011;904;47.814;11.134;2024-03-02T10:56:54;4.10;;;2.67;;
1811;SDS011;904;47.814;11.134;2024-03-02T10:59:27;4.10;;;2.87;;
1811;SDS011;904;47.814;11.134;2024-03-02T11:01:56;4.30;;;2.83;;
1811;SDS011;904;47.814;11.134;2024-03-02T11:04:24;4.63;;;3.20;;
1811;SDS011;904;47.814;11.134;2024-03-02T11:06:54;3.97;;;3.10;;
1811;SDS011;904;47.814;11.134;2024-03-02T11:09:26;3.53;;;2.13;;
1811;SDS011;904;47.814;11.134;2024-03-02T11:11:56;3.03;;;2.00;;
1811;SDS011;904;47.814;11.134;2024-03-02T11:14:30;4.33;;;2.50;;
1811;SDS011;904;47.814;11.134;2024-03-02T11:16:58;3.50;;;2.23;;
1811;SDS011;904;47.814;11.134;2024-03-02T11:19:27;3.90;;;2.50;;
1811;SDS011;904;47.814;11.134;2024-03-02T11:21:55;6.13;;;3.53;;
1811;SDS011;904;47.814;11.134;2024-03-02T11:24:32;3.90;;;2.70;;
1811;SDS011;904;47.814;11.134;2024-03-02T11:27:00;4.00;;;2.77;;
1811;SDS011;904;47.814;11.134;2024-03-02T11:29:43;4.73;;;3.50;;
1811;SDS011;904;47.814;11.134;2024-03-02T11:32:17;3.90;;;2.73;;
1811;SDS011;904;47.814;11.134;2024-03-02T11:34:47;3.50;;;2.40;;
1811;SDS011;904;47.814;11.134;2024-03-02T11:37:17;4.43;;;3.20;;
1811;SDS011;904;47.814;11.134;2024-03-02T11:39:46;4.10;;;2.87;;
1811;SDS011;904;47.814;11.134;2024-03-02T11:42:15;3.70;;;2.30;;
1811;SDS011;904;47.814;11.134;2024-03-02T11:44:43;3.87;;;2.30;;
1811;SDS011;904;47.814;11.134;2024-03-02T11:47:13;3.57;;;1.97;;
1811;SDS011;904;47.814;11.134;2024-03-02T11:49:41;4.17;;;2.33;;
1811;SDS011;904;47.814;11.134;2024-03-02T11:52:10;4.20;;;2.23;;
1811;SDS011;904;47.814;11.134;2024-03-02T11:54:40;7.47;;;2.47;;
1811;SDS011;904;47.814;11.134;2024-03-02T11:57:11;3.70;;;2.03;;
1811;SDS011;904;47.814;11.134;2024-03-02T11:59:39;4.03;;;2.43;;
1811;SDS011;904;47.814;11.134;2024-03-02T12:02:06;3.70;;;2.40;;
1811;SDS011;904;47.814;11.134;2024-03-02T12:04:43;4.47;;;2.10;;
1811;SDS011;904;47.814;11.134;2024-03-02T12:07:11;3.37;;;1.80;;
1811;SDS011;904;47.814;11.134;2024-03-02T12:09:40;6.00;;;2.20;;
1811;SDS011;904;47.814;11.134;2024-03-02T12:12:07;4.23;;;2.03;;
1811;SDS011;904;47.814;11.134;2024-03-02T12:14:36;5.47;;;2.90;;
1811;SDS011;904;47.814;11.134;2024-03-02T12:17:04;4.03;;;2.30;;
1811;SDS011;904;47.814;11.134;2024-03-02T12:19:32;4.37;;;2.70;;
1811;SDS011;904;47.814;11.134;2024-03-02T12:22:00;3.90;;;2.20;;
1811;SDS011;904;47.814;11.134;2024-03-02T12:24:27;4.80;;;2.73;;
1811;SDS011;904;47.814;11.134;2024-03-02T12:26:56;5.37;;;2.10;;
1811;SDS011;904;47.814;11.134;2024-03-02T12:29:24;3.67;;;2.43;;
1811;SDS011;904;47.814;11.134;2024-03-02T12:31:51;3.97;;;2.53;;
1811;SDS011;904;47.814;11.134;2024-03-02T12:34:19;4.63;;;2.57;;
1811;SDS011;904;47.814;11.134;2024-03-02T12:36:48;4.20;;;2.90;;
1811;SDS011;904;47.814;11.134;2024-03-02T12:39:18;5.00;;;2.47;;
1811;SDS011;904;47.814;11.134;2024-03-02T12:41:46;4.50;;;2.53;;
1811;SDS011;904;47.814;11.134;2024-03-02T12:44:17;4.23;;;2.90;;
1811;SDS011;904;47.814;11.134;2024-03-02T12:46:44;4.57;;;3.10;;
1811;SDS011;904;47.814;11.134;2024-03-02T12:49:12;5.47;;;3.40;;
1811;SDS011;904;47.814;11.134;2024-03-02T12:51:41;4.77;;;3.10;;
1811;SDS011;904;47.814;11.134;2024-03-02T12:54:08;5.97;;;3.27;;
1811;SDS011;904;47.814;11.134;2024-03-02T12:56:36;4.43;;;3.07;;
1811;SDS011;904;47.814;11.134;2024-03-02T12:59:04;5.27;;;3.00;;
1811;SDS011;904;47.814;11.134;2024-03-02T13:01:33;6.27;;;3.20;;
1811;SDS011;904;47.814;11.134;2024-03-02T13:04:00;4.63;;;3.20;;
1811;SDS011;904;47.814;11.134;2024-03-02T13:06:27;5.67;;;4.13;;
1811;SDS011;904;47.814;11.134;2024-03-02T13:08:54;6.53;;;4.10;;
1811;SDS011;904;47.814;11.134;2024-03-02T13:11:21;5.43;;;4.10;;
1811;SDS011;904;47.814;11.134;2024-03-02T13:13:49;9.60;;;4.60;;
1811;SDS011;904;47.814;11.134;2024-03-02T13:16:17;7.00;;;5.03;;
1811;SDS011;904;47.814;11.134;2024-03-02T13:18:46;9.47;;;5.67;;
1811;SDS011;904;47.814;11.134;2024-03-02T13:21:13;7.50;;;4.73;;
1811;SDS011;904;47.814;11.134;2024-03-02T13:23:40;7.87;;;4.80;;
1811;SDS011;904;47.814;11.134;2024-03-02T13:26:07;6.13;;;4.30;;
1811;SDS011;904;47.814;11.134;2024-03-02T13:28:36;9.97;;;4.97;;
1811;SDS011;904;47.814;11.134;2024-03-02T13:31:04;6.73;;;5.00;;
1811;SDS011;904;47.814;11.134;2024-03-02T13:33:31;5.67;;;4.23;;
1811;SDS011;904;47.814;11.134;2024-03-02T13:36:00;6.80;;;4.50;;
1811;SDS011;904;47.814;11.134;2024-03-02T13:38:28;6.73;;;4.17;;
1811;SDS011;904;47.814;11.134;2024-03-02T13:40:55;6.57;;;4.57;;
1811;SDS011;904;47.814;11.134;2024-03-02T13:43:22;6.47;;;4.90;;
1811;SDS011;904;47.814;11.134;2024-03-02T13:45:49;6.30;;;4.37;;
1811;SDS011;904;47.814;11.134;2024-03-02T13:48:18;7.10;;;4.77;;
1811;SDS011;904;47.814;11.134;2024-03-02T13:50:45;8.77;;;4.67;;
1811;SDS011;904;47.814;11.134;2024-03-02T13:53:14;10.20;;;5.10;;
1811;SDS011;904;47.814;11.134;2024-03-02T13:55:41;6.50;;;4.40;;
1811;SDS011;904;47.814;11.134;2024-03-02T13:58:08;6.30;;;4.10;;
1811;SDS011;904;47.814;11.134;2024-03-02T14:00:36;5.30;;;3.60;;
1811;SDS011;904;47.814;11.134;2024-03-02T14:03:04;6.47;;;4.00;;
1811;SDS011;904;47.814;11.134;2024-03-02T14:05:32;6.33;;;3.53;;
1811;SDS011;904;47.814;11.134;2024-03-02T14:08:00;5.83;;;4.17;;
1811;SDS011;904;47.814;11.134;2024-03-02T14:10:28;6.23;;;4.00;;
1811;SDS011;904;47.814;11.134;2024-03-02T14:12:55;5.70;;;3.87;;
1811;SDS011;904;47.814;11.134;2024-03-02T14:15:22;4.90;;;3.53;;
1811;SDS011;904;47.814;11.134;2024-03-02T14:17:49;7.53;;;3.90;;
1811;SDS011;904;47.814;11.134;2024-03-02T14:20:16;8.10;;;3.90;;
1811;SDS011;904;47.814;11.134;2024-03-02T14:22:47;8.13;;;4.17;;
1811;SDS011;904;47.814;11.134;2024-03-02T14:25:14;6.60;;;4.33;;
1811;SDS011;904;47.814;11.134;2024-03-02T14:27:43;6.07;;;3.60;;
1811;SDS011;904;47.814;11.134;2024-03-02T14:30:10;7.90;;;3.80;;
1811;SDS011;904;47.814;11.134;2024-03-02T14:32:39;4.87;;;3.27;;
1811;SDS011;904;47.814;11.134;2024-03-02T14:35:06;5.60;;;3.17;;
1811;SDS011;904;47.814;11.134;2024-03-02T14:37:36;4.97;;;3.20;;
1811;SDS011;904;47.814;11.134;2024-03-02T14:40:04;8.57;;;3.50;;
1811;SDS011;904;47.814;11.134;2024-03-02T14:42:34;7.53;;;3.83;;
1811;SDS011;904;47.814;11.134;2024-03-02T14:45:03;6.60;;;3.77;;
1811;SDS011;904;47.814;11.134;2024-03-02T14:47:31;5.80;;;3.50;;
1811;SDS011;904;47.814;11.134;2024-03-02T14:50:00;5.93;;;3.73;;
1811;SDS011;904;47.814;11.134;2024-03-02T14:52:31;6.27;;;4.20;;
1811;SDS011;904;47.814;11.134;2024-03-02T14:54:58;5.10;;;3.40;;
1811;SDS011;904;47.814;11.134;2024-03-02T14:57:25;6.10;;;3.77;;
1811;SDS011;904;47.814;11.134;2024-03-02T14:59:52;5.87;;;4.30;;
1811;SDS011;904;47.814;11.134;2024-03-02T15:02:20;6.50;;;4.10;;
1811;SDS011;904;47.814;11.134;2024-03-02T15:04:48;6.90;;;4.47;;
1811;SDS011;904;47.814;11.134;2024-03-02T15:07:15;7.23;;;4.33;;
1811;SDS011;904;47.814;11.134;2024-03-02T15:09:42;8.00;;;5.10;;
1811;SDS011;904;47.814;11.134;2024-03-02T15:12:09;6.80;;;4.13;;
1811;SDS011;904;47.814;11.134;2024-03-02T15:14:39;7.40;;;5.10;;
1811;SDS011;904;47.814;11.134;2024-03-02T15:17:10;8.33;;;6.00;;
1811;SDS011;904;47.814;11.134;2024-03-02T15:19:44;15.80;;;7.03;;
1811;SDS011;904;47.814;11.134;2024-03-02T15:22:12;10.87;;;8.17;;
1811;SDS011;904;47.814;11.134;2024-03-02T15:24:39;10.63;;;6.83;;